Архангельское

Карта отелей и гостиниц, располагающихся рядом с аэропортом Архангельское :

Архангельское Тульская область 53° 14' 51" N, 37° 42' 34.02" E
Архангельское Тульская область 53° 14' 51" N, 37° 42' 34.02" E
Код аэродрома ИКАО
ZEK3
Код аэродрома RU
ЗЕК3
Координаты
N53.24750° E037.70945°
Превышение над уровнем моря
254
Основная полоса
08/26
Курс магнитный
075,3/255,3
Длина основной ВПП
400
Ширина основной ВПП
18
Покрытие основной ВПП
Твёрдое (асфальт)
Освещение ВПП
Нет
Тип: 
Аэродром
Класс аэродрома: 
Принадлежность: 
ГА
Статус: 
Недействующий
Сайт: 
E-mail аэродрома: 
Страна: 
Россия
Регион: 
Тульская область
Город: 
Дополнительная информация: 
Бывшая площадка АХР.

Найти трансфер

С помощью этой формы Вы можете найти трансфер из аэропорта Архангельское в город, аэропорт или вокзал:

Карта места

Javascript is required to view this map.

Погода в аэропортах:

Авиационная погода в аэропорту Алыкель

Регион: 
Погода METAR: 
UOOO 051100Z 04004MPS 1100 R01/1100N FU SCT022 18/16 Q1015 R01/CLRD60 NOSIG RMK QFE747/0996
Время наблюдения
2021-08-05T11:00:00Z
Температура C
18.0
Точка росы
16.0
Направление ветра
40
Скорость ветра (узлы)
8
Метео видимость
0.68
Явления погоды
FU
Условия полета
LIFR
Аэропорт подробнее: 

Авиационная погода в Магнитогорске

Погода METAR: 
USCM 051100Z 15003MPS 9999 TS BKN040CB 32/12 Q1009 R18/090060 TEMPO VRB21MPS 2000 TSRAGR SQ BKN007CB RMK QFE719
Время наблюдения
2021-08-05T11:00:00Z
Температура C
32.0
Точка росы
12.0
Направление ветра
150
Скорость ветра (узлы)
6
Метео видимость
6.21
Явления погоды
TS
Условия полета
VFR
Аэропорт подробнее: 

Авиационная погода в Хомутово

Регион: 
Погода METAR: 
UHSS 051100Z 35004MPS 9000 -SHRA BKN008 BKN012CB 18/18 Q1006 R01/70D NOSIG RMK MT OBSC QFE754/1005
Время наблюдения
2021-08-05T11:00:00Z
Температура C
18.0
Точка росы
18.0
Направление ветра
350
Скорость ветра (узлы)
8
Метео видимость
5.59
Явления погоды
-SHRA
Условия полета
IFR
Аэропорт подробнее: 

Авиационная погода в Пскове

Регион: 
Погода METAR: 
ULOO 051100Z 02002MPS 330V070 9999 -SHRA FEW038CB 15/11 Q1015 R01/090070 NOSIG RMK QFE757
Время наблюдения
2021-08-05T11:00:00Z
Температура C
15.0
Точка росы
11.0
Направление ветра
20
Скорость ветра (узлы)
4
Метео видимость
6.21
Явления погоды
-SHRA
Условия полета
VFR